sensor_id;sensor_type;location;lat;lon;timestamp;P1;durP1;ratioP1;P2;durP2;ratioP2
11957;SDS011;6039;52.576;13.348;2023-09-19T00:04:17;2.47;;;1.60;;
11957;SDS011;6039;52.576;13.348;2023-09-19T00:09:28;3.00;;;2.00;;
11957;SDS011;6039;52.576;13.348;2023-09-19T00:14:39;4.93;;;1.90;;
11957;SDS011;6039;52.576;13.348;2023-09-19T00:19:43;5.60;;;2.00;;
11957;SDS011;6039;52.576;13.348;2023-09-19T00:24:51;1.93;;;1.70;;
11957;SDS011;6039;52.576;13.348;2023-09-19T00:29:58;3.43;;;1.80;;
11957;SDS011;6039;52.576;13.348;2023-09-19T00:35:04;3.33;;;1.90;;
11957;SDS011;6039;52.576;13.348;2023-09-19T00:40:10;2.03;;;1.70;;
11957;SDS011;6039;52.576;13.348;2023-09-19T00:45:18;2.73;;;1.60;;
11957;SDS011;6039;52.576;13.348;2023-09-19T00:50:23;3.17;;;1.80;;
11957;SDS011;6039;52.576;13.348;2023-09-19T00:55:28;3.73;;;2.07;;
11957;SDS011;6039;52.576;13.348;2023-09-19T01:00:36;4.47;;;2.03;;
11957;SDS011;6039;52.576;13.348;2023-09-19T01:05:40;2.87;;;1.63;;
11957;SDS011;6039;52.576;13.348;2023-09-19T01:10:46;2.87;;;1.70;;
11957;SDS011;6039;52.576;13.348;2023-09-19T01:15:59;2.77;;;1.77;;
11957;SDS011;6039;52.576;13.348;2023-09-19T01:21:08;2.83;;;1.73;;
11957;SDS011;6039;52.576;13.348;2023-09-19T01:26:18;4.13;;;1.70;;
11957;SDS011;6039;52.576;13.348;2023-09-19T01:31:35;2.80;;;1.90;;
11957;SDS011;6039;52.576;13.348;2023-09-19T01:36:41;5.07;;;1.53;;
11957;SDS011;6039;52.576;13.348;2023-09-19T01:41:49;1.80;;;1.60;;
11957;SDS011;6039;52.576;13.348;2023-09-19T01:47:01;2.87;;;2.00;;
11957;SDS011;6039;52.576;13.348;2023-09-19T01:52:12;4.20;;;1.90;;
11957;SDS011;6039;52.576;13.348;2023-09-19T01:57:17;3.27;;;2.00;;
11957;SDS011;6039;52.576;13.348;2023-09-19T02:02:28;2.63;;;1.80;;
11957;SDS011;6039;52.576;13.348;2023-09-19T02:07:33;2.03;;;1.83;;
11957;SDS011;6039;52.576;13.348;2023-09-19T02:12:37;3.83;;;1.80;;
11957;SDS011;6039;52.576;13.348;2023-09-19T02:17:44;2.00;;;1.80;;
11957;SDS011;6039;52.576;13.348;2023-09-19T02:22:48;2.80;;;1.93;;
11957;SDS011;6039;52.576;13.348;2023-09-19T02:27:52;3.87;;;1.90;;
11957;SDS011;6039;52.576;13.348;2023-09-19T02:33:01;4.40;;;2.03;;
11957;SDS011;6039;52.576;13.348;2023-09-19T02:38:05;4.07;;;2.00;;
11957;SDS011;6039;52.576;13.348;2023-09-19T02:43:12;2.20;;;1.80;;
11957;SDS011;6039;52.576;13.348;2023-09-19T02:48:19;3.10;;;1.93;;
11957;SDS011;6039;52.576;13.348;2023-09-19T02:53:24;3.30;;;1.80;;
11957;SDS011;6039;52.576;13.348;2023-09-19T02:58:30;4.17;;;1.90;;
11957;SDS011;6039;52.576;13.348;2023-09-19T03:03:38;3.20;;;2.07;;
11957;SDS011;6039;52.576;13.348;2023-09-19T03:08:42;2.60;;;2.00;;
11957;SDS011;6039;52.576;13.348;2023-09-19T03:13:50;2.13;;;1.90;;
11957;SDS011;6039;52.576;13.348;2023-09-19T03:18:57;3.97;;;1.73;;
11957;SDS011;6039;52.576;13.348;2023-09-19T03:24:01;4.60;;;1.70;;
11957;SDS011;6039;52.576;13.348;2023-09-19T03:29:05;2.80;;;1.43;;
11957;SDS011;6039;52.576;13.348;2023-09-19T03:34:12;4.10;;;1.57;;
11957;SDS011;6039;52.576;13.348;2023-09-19T03:39:16;2.17;;;1.67;;
11957;SDS011;6039;52.576;13.348;2023-09-19T03:44:21;2.53;;;1.40;;
11957;SDS011;6039;52.576;13.348;2023-09-19T03:49:27;3.87;;;1.50;;
11957;SDS011;6039;52.576;13.348;2023-09-19T03:54:31;1.30;;;1.20;;
11957;SDS011;6039;52.576;13.348;2023-09-19T03:59:35;1.80;;;1.30;;
11957;SDS011;6039;52.576;13.348;2023-09-19T04:04:42;1.97;;;1.47;;
11957;SDS011;6039;52.576;13.348;2023-09-19T04:09:45;4.13;;;1.40;;
11957;SDS011;6039;52.576;13.348;2023-09-19T04:14:49;1.10;;;1.00;;
11957;SDS011;6039;52.576;13.348;2023-09-19T04:19:56;1.90;;;1.50;;
11957;SDS011;6039;52.576;13.348;2023-09-19T04:25:00;1.50;;;1.30;;
11957;SDS011;6039;52.576;13.348;2023-09-19T04:30:04;1.43;;;1.30;;
11957;SDS011;6039;52.576;13.348;2023-09-19T04:35:14;4.67;;;1.53;;
11957;SDS011;6039;52.576;13.348;2023-09-19T04:40:18;2.97;;;1.60;;
11957;SDS011;6039;52.576;13.348;2023-09-19T04:45:23;3.63;;;1.97;;
11957;SDS011;6039;52.576;13.348;2023-09-19T04:50:29;3.13;;;2.00;;
11957;SDS011;6039;52.576;13.348;2023-09-19T04:55:34;2.00;;;1.60;;
11957;SDS011;6039;52.576;13.348;2023-09-19T05:00:38;1.90;;;1.70;;
11957;SDS011;6039;52.576;13.348;2023-09-19T05:05:44;3.53;;;2.10;;
11957;SDS011;6039;52.576;13.348;2023-09-19T05:10:48;2.33;;;1.80;;
11957;SDS011;6039;52.576;13.348;2023-09-19T05:15:52;2.70;;;1.73;;
11957;SDS011;6039;52.576;13.348;2023-09-19T05:20:59;2.30;;;1.57;;
11957;SDS011;6039;52.576;13.348;2023-09-19T05:26:05;6.83;;;1.83;;
11957;SDS011;6039;52.576;13.348;2023-09-19T05:31:10;2.00;;;1.70;;
11957;SDS011;6039;52.576;13.348;2023-09-19T05:36:18;2.43;;;1.70;;
11957;SDS011;6039;52.576;13.348;2023-09-19T05:41:22;2.03;;;1.73;;
11957;SDS011;6039;52.576;13.348;2023-09-19T05:46:26;3.40;;;1.80;;
11957;SDS011;6039;52.576;13.348;2023-09-19T05:51:33;2.80;;;2.00;;
11957;SDS011;6039;52.576;13.348;2023-09-19T05:56:37;5.47;;;1.90;;
11957;SDS011;6039;52.576;13.348;2023-09-19T06:01:42;3.20;;;1.70;;
11957;SDS011;6039;52.576;13.348;2023-09-19T06:06:48;5.27;;;2.30;;
11957;SDS011;6039;52.576;13.348;2023-09-19T06:11:52;3.13;;;1.90;;
11957;SDS011;6039;52.576;13.348;2023-09-19T06:16:57;6.57;;;1.83;;
11957;SDS011;6039;52.576;13.348;2023-09-19T06:22:04;3.13;;;1.53;;
11957;SDS011;6039;52.576;13.348;2023-09-19T06:27:08;2.80;;;2.03;;
11957;SDS011;6039;52.576;13.348;2023-09-19T06:32:12;2.70;;;1.70;;
11957;SDS011;6039;52.576;13.348;2023-09-19T06:37:19;2.90;;;1.73;;
11957;SDS011;6039;52.576;13.348;2023-09-19T06:42:24;6.97;;;1.90;;
11957;SDS011;6039;52.576;13.348;2023-09-19T06:47:28;9.43;;;2.20;;
11957;SDS011;6039;52.576;13.348;2023-09-19T06:52:34;2.87;;;2.13;;
11957;SDS011;6039;52.576;13.348;2023-09-19T06:57:39;4.97;;;2.20;;
11957;SDS011;6039;52.576;13.348;2023-09-19T07:02:44;5.20;;;2.20;;
11957;SDS011;6039;52.576;13.348;2023-09-19T07:07:50;3.37;;;1.97;;
11957;SDS011;6039;52.576;13.348;2023-09-19T07:12:55;3.00;;;1.93;;
11957;SDS011;6039;52.576;13.348;2023-09-19T07:17:59;2.60;;;1.90;;
11957;SDS011;6039;52.576;13.348;2023-09-19T07:23:06;3.37;;;1.90;;
11957;SDS011;6039;52.576;13.348;2023-09-19T07:28:10;3.57;;;1.93;;
11957;SDS011;6039;52.576;13.348;2023-09-19T07:33:14;3.33;;;1.70;;
11957;SDS011;6039;52.576;13.348;2023-09-19T07:38:21;4.93;;;2.03;;
11957;SDS011;6039;52.576;13.348;2023-09-19T07:43:27;2.43;;;1.90;;
11957;SDS011;6039;52.576;13.348;2023-09-19T07:48:31;3.00;;;2.00;;
11957;SDS011;6039;52.576;13.348;2023-09-19T07:53:38;4.27;;;2.03;;
11957;SDS011;6039;52.576;13.348;2023-09-19T07:58:42;3.47;;;2.20;;
11957;SDS011;6039;52.576;13.348;2023-09-19T08:03:47;2.50;;;2.10;;
11957;SDS011;6039;52.576;13.348;2023-09-19T08:08:53;3.23;;;2.53;;
11957;SDS011;6039;52.576;13.348;2023-09-19T08:13:58;3.10;;;2.20;;
11957;SDS011;6039;52.576;13.348;2023-09-19T08:19:02;3.80;;;2.37;;
11957;SDS011;6039;52.576;13.348;2023-09-19T08:24:08;3.97;;;2.20;;
11957;SDS011;6039;52.576;13.348;2023-09-19T08:29:14;2.07;;;1.80;;
11957;SDS011;6039;52.576;13.348;2023-09-19T08:34:18;4.93;;;2.40;;
11957;SDS011;6039;52.576;13.348;2023-09-19T08:39:25;5.00;;;2.70;;
11957;SDS011;6039;52.576;13.348;2023-09-19T08:44:31;6.23;;;2.63;;
11957;SDS011;6039;52.576;13.348;2023-09-19T08:49:41;4.07;;;2.57;;
11957;SDS011;6039;52.576;13.348;2023-09-19T08:54:55;3.73;;;2.50;;
11957;SDS011;6039;52.576;13.348;2023-09-19T09:00:04;5.00;;;2.07;;
11957;SDS011;6039;52.576;13.348;2023-09-19T09:05:11;4.17;;;2.03;;
11957;SDS011;6039;52.576;13.348;2023-09-19T09:10:25;4.10;;;1.90;;
11957;SDS011;6039;52.576;13.348;2023-09-19T09:15:29;3.80;;;2.07;;
11957;SDS011;6039;52.576;13.348;2023-09-19T09:20:34;7.03;;;2.27;;
11957;SDS011;6039;52.576;13.348;2023-09-19T09:25:50;3.43;;;2.20;;
11957;SDS011;6039;52.576;13.348;2023-09-19T09:30:59;6.83;;;2.30;;
11957;SDS011;6039;52.576;13.348;2023-09-19T09:36:08;6.00;;;2.70;;
11957;SDS011;6039;52.576;13.348;2023-09-19T09:41:17;5.83;;;2.60;;
11957;SDS011;6039;52.576;13.348;2023-09-19T09:46:27;3.40;;;2.30;;
11957;SDS011;6039;52.576;13.348;2023-09-19T09:51:44;4.80;;;2.27;;
11957;SDS011;6039;52.576;13.348;2023-09-19T09:57:00;4.47;;;2.73;;
11957;SDS011;6039;52.576;13.348;2023-09-19T10:02:13;5.97;;;2.30;;
11957;SDS011;6039;52.576;13.348;2023-09-19T10:07:24;4.33;;;2.60;;
11957;SDS011;6039;52.576;13.348;2023-09-19T10:12:42;6.07;;;2.40;;
11957;SDS011;6039;52.576;13.348;2023-09-19T10:17:48;6.27;;;2.50;;
11957;SDS011;6039;52.576;13.348;2023-09-19T10:22:59;2.87;;;2.17;;
11957;SDS011;6039;52.576;13.348;2023-09-19T10:28:12;4.73;;;2.37;;
11957;SDS011;6039;52.576;13.348;2023-09-19T10:33:21;4.33;;;2.40;;
11957;SDS011;6039;52.576;13.348;2023-09-19T10:38:27;5.07;;;2.40;;
11957;SDS011;6039;52.576;13.348;2023-09-19T10:43:35;6.03;;;2.13;;
11957;SDS011;6039;52.576;13.348;2023-09-19T10:48:44;4.17;;;2.10;;
11957;SDS011;6039;52.576;13.348;2023-09-19T10:53:50;5.83;;;2.50;;
11957;SDS011;6039;52.576;13.348;2023-09-19T10:59:07;4.47;;;2.10;;
11957;SDS011;6039;52.576;13.348;2023-09-19T11:04:22;3.13;;;2.10;;
11957;SDS011;6039;52.576;13.348;2023-09-19T11:09:41;7.67;;;2.57;;
11957;SDS011;6039;52.576;13.348;2023-09-19T11:14:49;4.37;;;2.10;;
11957;SDS011;6039;52.576;13.348;2023-09-19T11:25:41;4.67;;;2.00;;
11957;SDS011;6039;52.576;13.348;2023-09-19T11:30:50;6.63;;;2.20;;
11957;SDS011;6039;52.576;13.348;2023-09-19T11:36:01;8.50;;;1.80;;
11957;SDS011;6039;52.576;13.348;2023-09-19T11:46:53;5.73;;;2.00;;
11957;SDS011;6039;52.576;13.348;2023-09-19T11:51:59;3.00;;;1.60;;
11957;SDS011;6039;52.576;13.348;2023-09-19T11:57:06;3.50;;;1.70;;
11957;SDS011;6039;52.576;13.348;2023-09-19T12:02:16;5.53;;;1.73;;
11957;SDS011;6039;52.576;13.348;2023-09-19T12:07:31;2.63;;;1.30;;
11957;SDS011;6039;52.576;13.348;2023-09-19T12:12:46;2.83;;;1.40;;
11957;SDS011;6039;52.576;13.348;2023-09-19T12:17:55;2.53;;;1.50;;
11957;SDS011;6039;52.576;13.348;2023-09-19T12:22:59;5.43;;;1.93;;
11957;SDS011;6039;52.576;13.348;2023-09-19T12:28:03;5.23;;;1.50;;
11957;SDS011;6039;52.576;13.348;2023-09-19T12:33:17;6.63;;;1.77;;
11957;SDS011;6039;52.576;13.348;2023-09-19T12:38:26;4.30;;;1.60;;
11957;SDS011;6039;52.576;13.348;2023-09-19T12:43:35;4.03;;;1.40;;
11957;SDS011;6039;52.576;13.348;2023-09-19T12:48:44;3.50;;;1.67;;
11957;SDS011;6039;52.576;13.348;2023-09-19T12:53:56;2.80;;;1.63;;
11957;SDS011;6039;52.576;13.348;2023-09-19T12:59:00;3.77;;;1.47;;
11957;SDS011;6039;52.576;13.348;2023-09-19T13:04:16;2.77;;;1.60;;
11957;SDS011;6039;52.576;13.348;2023-09-19T13:09:26;2.67;;;1.60;;
11957;SDS011;6039;52.576;13.348;2023-09-19T13:14:34;4.60;;;1.90;;
11957;SDS011;6039;52.576;13.348;2023-09-19T13:19:43;2.43;;;1.40;;
11957;SDS011;6039;52.576;13.348;2023-09-19T13:24:49;6.17;;;1.90;;
11957;SDS011;6039;52.576;13.348;2023-09-19T13:29:53;4.70;;;1.50;;
11957;SDS011;6039;52.576;13.348;2023-09-19T13:35:00;3.80;;;1.53;;
11957;SDS011;6039;52.576;13.348;2023-09-19T13:40:05;4.13;;;1.80;;
11957;SDS011;6039;52.576;13.348;2023-09-19T13:45:10;3.20;;;1.60;;
11957;SDS011;6039;52.576;13.348;2023-09-19T13:50:20;2.67;;;1.67;;
11957;SDS011;6039;52.576;13.348;2023-09-19T13:55:25;3.20;;;1.40;;
11957;SDS011;6039;52.576;13.348;2023-09-19T14:00:29;2.80;;;1.37;;
11957;SDS011;6039;52.576;13.348;2023-09-19T14:05:36;2.50;;;1.50;;
11957;SDS011;6039;52.576;13.348;2023-09-19T14:10:42;2.33;;;1.20;;
11957;SDS011;6039;52.576;13.348;2023-09-19T14:15:46;3.20;;;1.30;;
11957;SDS011;6039;52.576;13.348;2023-09-19T14:20:53;3.20;;;1.63;;
11957;SDS011;6039;52.576;13.348;2023-09-19T14:25:57;4.43;;;1.20;;
11957;SDS011;6039;52.576;13.348;2023-09-19T14:31:05;2.47;;;1.33;;
11957;SDS011;6039;52.576;13.348;2023-09-19T14:36:12;3.00;;;1.43;;
11957;SDS011;6039;52.576;13.348;2023-09-19T14:41:17;3.57;;;1.90;;
11957;SDS011;6039;52.576;13.348;2023-09-19T14:46:21;4.70;;;1.50;;
11957;SDS011;6039;52.576;13.348;2023-09-19T14:51:28;4.23;;;1.67;;
11957;SDS011;6039;52.576;13.348;2023-09-19T14:56:33;3.57;;;1.30;;
11957;SDS011;6039;52.576;13.348;2023-09-19T15:01:37;3.37;;;1.80;;
11957;SDS011;6039;52.576;13.348;2023-09-19T15:06:43;2.57;;;1.70;;
11957;SDS011;6039;52.576;13.348;2023-09-19T15:11:48;3.37;;;1.57;;
11957;SDS011;6039;52.576;13.348;2023-09-19T15:16:52;2.37;;;1.47;;
11957;SDS011;6039;52.576;13.348;2023-09-19T15:21:59;2.03;;;1.30;;
11957;SDS011;6039;52.576;13.348;2023-09-19T15:27:04;3.80;;;1.60;;
11957;SDS011;6039;52.576;13.348;2023-09-19T15:32:08;4.67;;;1.50;;
11957;SDS011;6039;52.576;13.348;2023-09-19T15:37:14;2.07;;;1.63;;
11957;SDS011;6039;52.576;13.348;2023-09-19T15:42:20;2.63;;;1.73;;
11957;SDS011;6039;52.576;13.348;2023-09-19T15:47:24;3.10;;;1.60;;
11957;SDS011;6039;52.576;13.348;2023-09-19T15:52:31;2.40;;;1.40;;
11957;SDS011;6039;52.576;13.348;2023-09-19T15:57:36;2.87;;;1.50;;
11957;SDS011;6039;52.576;13.348;2023-09-19T16:02:40;2.60;;;1.57;;
11957;SDS011;6039;52.576;13.348;2023-09-19T16:07:46;2.43;;;1.70;;
11957;SDS011;6039;52.576;13.348;2023-09-19T16:12:51;2.93;;;1.70;;
11957;SDS011;6039;52.576;13.348;2023-09-19T16:17:55;4.03;;;1.70;;
11957;SDS011;6039;52.576;13.348;2023-09-19T16:23:03;3.80;;;1.67;;
11957;SDS011;6039;52.576;13.348;2023-09-19T16:28:07;3.00;;;1.93;;
11957;SDS011;6039;52.576;13.348;2023-09-19T16:33:11;4.63;;;2.10;;
11957;SDS011;6039;52.576;13.348;2023-09-19T16:38:17;4.37;;;2.10;;
11957;SDS011;6039;52.576;13.348;2023-09-19T16:43:23;3.00;;;1.80;;
11957;SDS011;6039;52.576;13.348;2023-09-19T16:48:28;3.57;;;2.10;;
11957;SDS011;6039;52.576;13.348;2023-09-19T16:53:35;3.43;;;1.77;;
11957;SDS011;6039;52.576;13.348;2023-09-19T16:58:41;4.10;;;2.00;;
11957;SDS011;6039;52.576;13.348;2023-09-19T17:03:48;4.40;;;2.17;;
11957;SDS011;6039;52.576;13.348;2023-09-19T17:08:54;3.60;;;1.80;;
11957;SDS011;6039;52.576;13.348;2023-09-19T17:13:58;3.87;;;2.17;;
11957;SDS011;6039;52.576;13.348;2023-09-19T17:19:03;3.30;;;2.13;;
11957;SDS011;6039;52.576;13.348;2023-09-19T17:24:11;3.03;;;1.73;;
11957;SDS011;6039;52.576;13.348;2023-09-19T17:29:15;9.17;;;2.40;;
11957;SDS011;6039;52.576;13.348;2023-09-19T17:34:19;6.20;;;2.00;;
11957;SDS011;6039;52.576;13.348;2023-09-19T17:39:26;5.27;;;2.00;;
11957;SDS011;6039;52.576;13.348;2023-09-19T17:44:30;3.77;;;2.23;;
11957;SDS011;6039;52.576;13.348;2023-09-19T17:49:35;4.13;;;2.43;;
11957;SDS011;6039;52.576;13.348;2023-09-19T17:54:42;8.57;;;2.20;;
11957;SDS011;6039;52.576;13.348;2023-09-19T17:59:49;3.80;;;2.13;;
11957;SDS011;6039;52.576;13.348;2023-09-19T18:04:53;4.13;;;2.00;;
11957;SDS011;6039;52.576;13.348;2023-09-19T18:09:59;3.73;;;2.03;;
11957;SDS011;6039;52.576;13.348;2023-09-19T18:15:08;4.37;;;2.10;;
11957;SDS011;6039;52.576;13.348;2023-09-19T18:20:15;6.43;;;2.40;;
11957;SDS011;6039;52.576;13.348;2023-09-19T18:25:22;3.73;;;2.07;;
11957;SDS011;6039;52.576;13.348;2023-09-19T18:30:26;6.30;;;2.20;;
11957;SDS011;6039;52.576;13.348;2023-09-19T18:35:31;4.27;;;1.90;;
11957;SDS011;6039;52.576;13.348;2023-09-19T18:40:41;6.13;;;2.03;;
11957;SDS011;6039;52.576;13.348;2023-09-19T18:45:54;3.83;;;1.87;;
11957;SDS011;6039;52.576;13.348;2023-09-19T18:51:03;4.40;;;2.10;;
11957;SDS011;6039;52.576;13.348;2023-09-19T18:56:11;4.93;;;1.90;;
11957;SDS011;6039;52.576;13.348;2023-09-19T19:01:15;4.27;;;2.17;;
11957;SDS011;6039;52.576;13.348;2023-09-19T19:06:20;5.27;;;1.90;;
11957;SDS011;6039;52.576;13.348;2023-09-19T19:11:27;4.53;;;1.97;;
11957;SDS011;6039;52.576;13.348;2023-09-19T19:16:34;4.27;;;1.93;;
11957;SDS011;6039;52.576;13.348;2023-09-19T19:21:39;8.17;;;2.33;;
11957;SDS011;6039;52.576;13.348;2023-09-19T19:26:46;4.30;;;2.20;;
11957;SDS011;6039;52.576;13.348;2023-09-19T19:31:50;2.57;;;1.57;;
11957;SDS011;6039;52.576;13.348;2023-09-19T19:36:54;4.40;;;2.10;;
11957;SDS011;6039;52.576;13.348;2023-09-19T19:42:01;3.27;;;2.10;;
11957;SDS011;6039;52.576;13.348;2023-09-19T19:47:05;3.63;;;2.00;;
11957;SDS011;6039;52.576;13.348;2023-09-19T19:52:09;4.50;;;1.70;;
11957;SDS011;6039;52.576;13.348;2023-09-19T19:57:16;3.63;;;1.80;;
11957;SDS011;6039;52.576;13.348;2023-09-19T20:02:20;5.40;;;1.83;;
11957;SDS011;6039;52.576;13.348;2023-09-19T20:07:24;3.67;;;2.00;;
11957;SDS011;6039;52.576;13.348;2023-09-19T20:12:31;3.97;;;1.90;;
11957;SDS011;6039;52.576;13.348;2023-09-19T20:17:36;3.63;;;2.13;;
11957;SDS011;6039;52.576;13.348;2023-09-19T20:22:41;3.50;;;1.60;;
11957;SDS011;6039;52.576;13.348;2023-09-19T20:27:51;3.40;;;1.70;;
11957;SDS011;6039;52.576;13.348;2023-09-19T20:32:55;2.83;;;1.80;;
11957;SDS011;6039;52.576;13.348;2023-09-19T20:38:01;2.67;;;1.73;;
11957;SDS011;6039;52.576;13.348;2023-09-19T20:43:09;7.53;;;2.10;;
11957;SDS011;6039;52.576;13.348;2023-09-19T20:48:14;3.13;;;1.70;;
11957;SDS011;6039;52.576;13.348;2023-09-19T20:53:18;4.27;;;1.90;;
11957;SDS011;6039;52.576;13.348;2023-09-19T20:58:24;3.00;;;1.97;;
11957;SDS011;6039;52.576;13.348;2023-09-19T21:03:28;4.10;;;2.13;;
11957;SDS011;6039;52.576;13.348;2023-09-19T21:08:33;7.53;;;2.20;;
11957;SDS011;6039;52.576;13.348;2023-09-19T21:13:40;3.30;;;1.80;;
11957;SDS011;6039;52.576;13.348;2023-09-19T21:18:45;4.53;;;1.80;;
11957;SDS011;6039;52.576;13.348;2023-09-19T21:23:49;6.67;;;2.27;;
11957;SDS011;6039;52.576;13.348;2023-09-19T21:28:57;3.23;;;1.77;;
11957;SDS011;6039;52.576;13.348;2023-09-19T21:34:01;3.70;;;1.70;;
11957;SDS011;6039;52.576;13.348;2023-09-19T21:39:06;4.13;;;1.80;;
11957;SDS011;6039;52.576;13.348;2023-09-19T21:44:13;3.60;;;1.70;;
11957;SDS011;6039;52.576;13.348;2023-09-19T21:49:17;3.27;;;1.90;;
11957;SDS011;6039;52.576;13.348;2023-09-19T21:54:21;4.10;;;1.80;;
11957;SDS011;6039;52.576;13.348;2023-09-19T21:59:28;6.23;;;2.13;;
11957;SDS011;6039;52.576;13.348;2023-09-19T22:04:33;3.37;;;1.73;;
11957;SDS011;6039;52.576;13.348;2023-09-19T22:09:37;3.33;;;2.00;;
11957;SDS011;6039;52.576;13.348;2023-09-19T22:14:43;5.20;;;2.40;;
11957;SDS011;6039;52.576;13.348;2023-09-19T22:19:47;3.73;;;1.70;;
11957;SDS011;6039;52.576;13.348;2023-09-19T22:24:53;4.33;;;1.97;;
11957;SDS011;6039;52.576;13.348;2023-09-19T22:30:00;2.37;;;1.60;;
11957;SDS011;6039;52.576;13.348;2023-09-19T22:35:05;2.03;;;1.50;;
11957;SDS011;6039;52.576;13.348;2023-09-19T22:40:09;2.83;;;1.60;;
11957;SDS011;6039;52.576;13.348;2023-09-19T22:45:30;5.10;;;1.90;;
11957;SDS011;6039;52.576;13.348;2023-09-19T22:50:36;4.47;;;1.70;;
11957;SDS011;6039;52.576;13.348;2023-09-19T22:55:44;4.10;;;1.70;;
11957;SDS011;6039;52.576;13.348;2023-09-19T23:00:51;4.10;;;1.90;;
11957;SDS011;6039;52.576;13.348;2023-09-19T23:05:55;2.43;;;1.60;;
11957;SDS011;6039;52.576;13.348;2023-09-19T23:11:01;4.10;;;1.80;;
11957;SDS011;6039;52.576;13.348;2023-09-19T23:16:12;2.57;;;1.70;;
11957;SDS011;6039;52.576;13.348;2023-09-19T23:21:21;3.70;;;1.90;;
11957;SDS011;6039;52.576;13.348;2023-09-19T23:26:27;6.73;;;1.70;;
11957;SDS011;6039;52.576;13.348;2023-09-19T23:31:34;4.33;;;2.00;;
11957;SDS011;6039;52.576;13.348;2023-09-19T23:36:40;4.17;;;1.57;;
11957;SDS011;6039;52.576;13.348;2023-09-19T23:41:44;3.67;;;1.70;;
11957;SDS011;6039;52.576;13.348;2023-09-19T23:46:51;7.20;;;1.90;;
11957;SDS011;6039;52.576;13.348;2023-09-19T23:51:55;9.03;;;2.00;;
11957;SDS011;6039;52.576;13.348;2023-09-19T23:56:59;6.50;;;1.97;;
